sensor_id;sensor_type;location;lat;lon;timestamp;pressure;altitude;pressure_sealevel;temperature;humidity
69574;BME280;62840;52.366;5.980;2022-09-21T00:01:07;102609.84;;;8.48;70.15
69574;BME280;62840;52.366;5.980;2022-09-21T00:03:36;102610.00;;;8.45;70.01
69574;BME280;62840;52.366;5.980;2022-09-21T00:06:03;102608.41;;;8.41;70.06
69574;BME280;62840;52.366;5.980;2022-09-21T00:08:29;102606.91;;;8.35;69.98
69574;BME280;62840;52.366;5.980;2022-09-21T00:10:56;102606.22;;;8.30;69.84
69574;BME280;62840;52.366;5.980;2022-09-21T00:13:25;102604.66;;;8.26;70.20
69574;BME280;62840;52.366;5.980;2022-09-21T00:15:51;102608.22;;;8.25;70.26
69574;BME280;62840;52.366;5.980;2022-09-21T00:18:17;102611.84;;;8.24;70.20
69574;BME280;62840;52.366;5.980;2022-09-21T00:20:43;102611.94;;;8.21;70.03
69574;BME280;62840;52.366;5.980;2022-09-21T00:23:11;102607.63;;;8.18;69.95
69574;BME280;62840;52.366;5.980;2022-09-21T00:25:37;102606.94;;;8.14;70.07
69574;BME280;62840;52.366;5.980;2022-09-21T00:28:02;102608.78;;;8.12;70.04
69574;BME280;62840;52.366;5.980;2022-09-21T00:30:31;102608.03;;;8.09;70.20
69574;BME280;62840;52.366;5.980;2022-09-21T00:32:57;102609.91;;;8.07;69.95
69574;BME280;62840;52.366;5.980;2022-09-21T00:35:22;102609.09;;;8.05;69.95
69574;BME280;62840;52.366;5.980;2022-09-21T00:37:48;102604.78;;;8.02;70.07
69574;BME280;62840;52.366;5.980;2022-09-21T00:40:14;102602.28;;;7.99;70.04
69574;BME280;62840;52.366;5.980;2022-09-21T00:42:40;102611.16;;;7.98;70.19
69574;BME280;62840;52.366;5.980;2022-09-21T00:45:09;102606.00;;;7.95;70.08
69574;BME280;62840;52.366;5.980;2022-09-21T00:47:42;102616.78;;;7.92;69.99
69574;BME280;62840;52.366;5.980;2022-09-21T00:50:13;102609.84;;;7.88;70.08
69574;BME280;62840;52.366;5.980;2022-09-21T00:52:44;102609.97;;;7.85;70.01
69574;BME280;62840;52.366;5.980;2022-09-21T00:55:19;102605.75;;;7.81;70.00
69574;BME280;62840;52.366;5.980;2022-09-21T00:57:52;102611.25;;;7.76;70.04
69574;BME280;62840;52.366;5.980;2022-09-21T01:00:23;102610.50;;;7.72;70.05
69574;BME280;62840;52.366;5.980;2022-09-21T01:02:56;102607.09;;;7.69;70.01
69574;BME280;62840;52.366;5.980;2022-09-21T01:05:22;102613.34;;;7.68;70.04
69574;BME280;62840;52.366;5.980;2022-09-21T01:07:48;102607.19;;;7.67;70.00
69574;BME280;62840;52.366;5.980;2022-09-21T01:10:16;102611.75;;;7.64;70.24
69574;BME280;62840;52.366;5.980;2022-09-21T01:12:55;102603.97;;;7.59;69.96
69574;BME280;62840;52.366;5.980;2022-09-21T01:15:38;102605.81;;;7.57;70.02
69574;BME280;62840;52.366;5.980;2022-09-21T01:18:19;102605.03;;;7.55;70.20
69574;BME280;62840;52.366;5.980;2022-09-21T01:21:19;102605.16;;;7.52;69.98
69574;BME280;62840;52.366;5.980;2022-09-21T01:24:11;102602.66;;;7.49;70.00
69574;BME280;62840;52.366;5.980;2022-09-21T01:30:02;102602.97;;;7.40;70.26
69574;BME280;62840;52.366;5.980;2022-09-21T01:32:39;102604.94;;;7.34;70.42
69574;BME280;62840;52.366;5.980;2022-09-21T01:35:15;102606.81;;;7.32;70.21
69574;BME280;62840;52.366;5.980;2022-09-21T01:37:49;102601.63;;;7.29;70.15
69574;BME280;62840;52.366;5.980;2022-09-21T01:40:22;102598.97;;;7.29;70.19
69574;BME280;62840;52.366;5.980;2022-09-21T01:42:54;102604.34;;;7.28;70.13
69574;BME280;62840;52.366;5.980;2022-09-21T01:45:29;102594.72;;;7.25;69.97
69574;BME280;62840;52.366;5.980;2022-09-21T01:47:59;102598.41;;;7.21;70.12
69574;BME280;62840;52.366;5.980;2022-09-21T01:50:27;102602.91;;;7.19;70.14
69574;BME280;62840;52.366;5.980;2022-09-21T01:53:04;102608.34;;;7.16;70.32
69574;BME280;62840;52.366;5.980;2022-09-21T01:55:40;102606.69;;;7.13;70.11
69574;BME280;62840;52.366;5.980;2022-09-21T01:58:15;102604.22;;;7.09;70.17
69574;BME280;62840;52.366;5.980;2022-09-21T02:00:51;102601.63;;;7.07;70.39
69574;BME280;62840;52.366;5.980;2022-09-21T02:03:25;102599.03;;;7.06;70.32
69574;BME280;62840;52.366;5.980;2022-09-21T02:05:55;102600.91;;;7.04;70.33
69574;BME280;62840;52.366;5.980;2022-09-21T02:08:25;102600.09;;;7.02;70.34
69574;BME280;62840;52.366;5.980;2022-09-21T02:10:54;102593.97;;;7.00;70.39
69574;BME280;62840;52.366;5.980;2022-09-21T02:13:23;102598.47;;;6.98;70.28
69574;BME280;62840;52.366;5.980;2022-09-21T02:16:04;102597.66;;;6.96;70.70
69574;BME280;62840;52.366;5.980;2022-09-21T02:18:52;102597.66;;;6.96;70.49
69574;BME280;62840;52.366;5.980;2022-09-21T02:21:35;102597.81;;;6.92;70.45
69574;BME280;62840;52.366;5.980;2022-09-21T02:24:24;102596.91;;;6.92;70.47
69574;BME280;62840;52.366;5.980;2022-09-21T02:27:09;102598.75;;;6.90;70.33
69574;BME280;62840;52.366;5.980;2022-09-21T02:29:48;102593.75;;;6.82;70.31
69574;BME280;62840;52.366;5.980;2022-09-21T02:32:27;102598.25;;;6.80;70.38
69574;BME280;62840;52.366;5.980;2022-09-21T02:35:02;102594.81;;;6.78;70.50
69574;BME280;62840;52.366;5.980;2022-09-21T02:37:39;102601.94;;;6.76;70.69
69574;BME280;62840;52.366;5.980;2022-09-21T02:40:16;102606.44;;;6.74;70.50
69574;BME280;62840;52.366;5.980;2022-09-21T02:42:55;102605.63;;;6.72;70.43
69574;BME280;62840;52.366;5.980;2022-09-21T02:45:30;102595.16;;;6.69;70.34
69574;BME280;62840;52.366;5.980;2022-09-21T02:48:06;102604.94;;;6.67;70.49
69574;BME280;62840;52.366;5.980;2022-09-21T02:50:43;102602.44;;;6.64;70.14
69574;BME280;62840;52.366;5.980;2022-09-21T02:53:14;102590.22;;;6.60;70.26
69574;BME280;62840;52.366;5.980;2022-09-21T02:55:45;102597.34;;;6.58;70.56
69574;BME280;62840;52.366;5.980;2022-09-21T02:58:13;102600.97;;;6.55;70.56
69574;BME280;62840;52.366;5.980;2022-09-21T03:00:42;102599.31;;;6.53;70.61
69574;BME280;62840;52.366;5.980;2022-09-21T03:03:18;102604.63;;;6.53;70.58
69574;BME280;62840;52.366;5.980;2022-09-21T03:05:47;102608.16;;;6.51;70.48
69574;BME280;62840;52.366;5.980;2022-09-21T03:08:15;102602.00;;;6.51;70.50
69574;BME280;62840;52.366;5.980;2022-09-21T03:10:41;102601.16;;;6.50;70.30
69574;BME280;62840;52.366;5.980;2022-09-21T03:13:08;102607.44;;;6.48;70.36
69574;BME280;62840;52.366;5.980;2022-09-21T03:15:38;102605.66;;;6.48;70.23
69574;BME280;62840;52.366;5.980;2022-09-21T03:18:06;102608.41;;;6.45;70.23
69574;BME280;62840;52.366;5.980;2022-09-21T03:20:38;102601.38;;;6.44;70.22
69574;BME280;62840;52.366;5.980;2022-09-21T03:23:07;102610.19;;;6.45;70.29
69574;BME280;62840;52.366;5.980;2022-09-21T03:25:35;102606.81;;;6.41;70.18
69574;BME280;62840;52.366;5.980;2022-09-21T03:28:01;102604.25;;;6.38;70.31
69574;BME280;62840;52.366;5.980;2022-09-21T03:30:30;102605.19;;;6.37;70.25
69574;BME280;62840;52.366;5.980;2022-09-21T03:32:56;102603.56;;;6.33;70.10
69574;BME280;62840;52.366;5.980;2022-09-21T03:35:24;102608.97;;;6.30;70.28
69574;BME280;62840;52.366;5.980;2022-09-21T03:37:54;102613.50;;;6.26;70.40
69574;BME280;62840;52.366;5.980;2022-09-21T03:40:20;102612.66;;;6.26;70.26
69574;BME280;62840;52.366;5.980;2022-09-21T03:42:46;102611.03;;;6.22;70.30
69574;BME280;62840;52.366;5.980;2022-09-21T03:45:12;102611.16;;;6.19;70.36
69574;BME280;62840;52.366;5.980;2022-09-21T03:47:39;102613.00;;;6.17;70.63
69574;BME280;62840;52.366;5.980;2022-09-21T03:50:06;102620.13;;;6.15;70.48
69574;BME280;62840;52.366;5.980;2022-09-21T03:52:33;102624.56;;;6.14;70.52
69574;BME280;62840;52.366;5.980;2022-09-21T03:55:06;102625.53;;;6.12;70.41
69574;BME280;62840;52.366;5.980;2022-09-21T03:57:34;102620.44;;;6.05;70.54
69574;BME280;62840;52.366;5.980;2022-09-21T04:00:05;102622.31;;;6.02;70.33
69574;BME280;62840;52.366;5.980;2022-09-21T04:02:35;102620.66;;;5.99;70.32
69574;BME280;62840;52.366;5.980;2022-09-21T04:05:01;102620.66;;;5.99;70.29
69574;BME280;62840;52.366;5.980;2022-09-21T04:07:32;102621.63;;;5.97;70.35
69574;BME280;62840;52.366;5.980;2022-09-21T04:10:01;102620.84;;;5.93;70.54
69574;BME280;62840;52.366;5.980;2022-09-21T04:12:32;102614.69;;;5.93;70.45
69574;BME280;62840;52.366;5.980;2022-09-21T04:14:58;102605.09;;;5.90;70.57
69574;BME280;62840;52.366;5.980;2022-09-21T04:17:24;102607.78;;;5.88;70.59
69574;BME280;62840;52.366;5.980;2022-09-21T04:19:49;102610.38;;;5.90;70.54
69574;BME280;62840;52.366;5.980;2022-09-21T04:22:16;102610.38;;;5.90;70.55
69574;BME280;62840;52.366;5.980;2022-09-21T04:24:42;102613.88;;;5.91;70.56
69574;BME280;62840;52.366;5.980;2022-09-21T04:27:09;102618.44;;;5.87;70.41
69574;BME280;62840;52.366;5.980;2022-09-21T04:29:41;102620.28;;;5.85;70.46
69574;BME280;62840;52.366;5.980;2022-09-21T04:32:07;102620.44;;;5.80;70.59
69574;BME280;62840;52.366;5.980;2022-09-21T04:34:35;102620.53;;;5.77;70.39
69574;BME280;62840;52.366;5.980;2022-09-21T04:37:01;102622.31;;;5.77;70.44
69574;BME280;62840;52.366;5.980;2022-09-21T04:39:27;102629.38;;;5.76;70.45
69574;BME280;62840;52.366;5.980;2022-09-21T04:41:53;102625.06;;;5.74;70.46
69574;BME280;62840;52.366;5.980;2022-09-21T04:44:22;102624.25;;;5.72;70.25
69574;BME280;62840;52.366;5.980;2022-09-21T04:46:50;102626.97;;;5.68;70.26
69574;BME280;62840;52.366;5.980;2022-09-21T04:49:19;102635.84;;;5.67;70.46
69574;BME280;62840;52.366;5.980;2022-09-21T04:51:45;102634.13;;;5.66;70.33
69574;BME280;62840;52.366;5.980;2022-09-21T04:54:12;102630.59;;;5.66;70.39
69574;BME280;62840;52.366;5.980;2022-09-21T04:56:44;102631.56;;;5.63;70.34
69574;BME280;62840;52.366;5.980;2022-09-21T04:59:11;102636.06;;;5.61;70.36
69574;BME280;62840;52.366;5.980;2022-09-21T05:01:39;102632.59;;;5.59;70.31
69574;BME280;62840;52.366;5.980;2022-09-21T05:04:13;102630.88;;;5.58;70.63
69574;BME280;62840;52.366;5.980;2022-09-21T05:06:39;102631.84;;;5.56;70.31
69574;BME280;62840;52.366;5.980;2022-09-21T05:09:09;102628.34;;;5.55;70.53
69574;BME280;62840;52.366;5.980;2022-09-21T05:11:35;102631.84;;;5.56;70.67
69574;BME280;62840;52.366;5.980;2022-09-21T05:14:03;102633.63;;;5.55;70.50
69574;BME280;62840;52.366;5.980;2022-09-21T05:16:29;102642.50;;;5.53;70.44
69574;BME280;62840;52.366;5.980;2022-09-21T05:18:54;102635.50;;;5.52;70.37
69574;BME280;62840;52.366;5.980;2022-09-21T05:21:23;102642.56;;;5.51;70.55
69574;BME280;62840;52.366;5.980;2022-09-21T05:23:49;102644.41;;;5.49;70.41
69574;BME280;62840;52.366;5.980;2022-09-21T05:26:15;102645.31;;;5.48;70.42
69574;BME280;62840;52.366;5.980;2022-09-21T05:28:41;102653.38;;;5.43;70.61
69574;BME280;62840;52.366;5.980;2022-09-21T05:31:20;102652.53;;;5.43;70.66
69574;BME280;62840;52.366;5.980;2022-09-21T05:34:01;102652.53;;;5.43;70.61
69574;BME280;62840;52.366;5.980;2022-09-21T05:36:44;102649.91;;;5.41;70.86
69574;BME280;62840;52.366;5.980;2022-09-21T05:39:17;102650.06;;;5.37;70.71
69574;BME280;62840;52.366;5.980;2022-09-21T05:41:44;102649.25;;;5.35;70.73
69574;BME280;62840;52.366;5.980;2022-09-21T05:44:12;102656.28;;;5.36;70.66
69574;BME280;62840;52.366;5.980;2022-09-21T05:46:40;102656.28;;;5.36;70.68
69574;BME280;62840;52.366;5.980;2022-09-21T05:49:17;102656.28;;;5.36;70.80
69574;BME280;62840;52.366;5.980;2022-09-21T05:52:00;102658.97;;;5.34;70.77
69574;BME280;62840;52.366;5.980;2022-09-21T05:54:46;102660.81;;;5.32;70.95
69574;BME280;62840;52.366;5.980;2022-09-21T05:57:28;102656.41;;;5.33;70.82
69574;BME280;62840;52.366;5.980;2022-09-21T06:00:12;102652.81;;;5.34;70.82
69574;BME280;62840;52.366;5.980;2022-09-21T06:02:57;102665.13;;;5.35;70.93
69574;BME280;62840;52.366;5.980;2022-09-21T06:05:35;102665.94;;;5.37;70.97
69574;BME280;62840;52.366;5.980;2022-09-21T06:08:03;102656.19;;;5.39;71.12
69574;BME280;62840;52.366;5.980;2022-09-21T06:10:32;102668.50;;;5.40;71.03
69574;BME280;62840;52.366;5.980;2022-09-21T06:13:02;102671.97;;;5.42;71.22
69574;BME280;62840;52.366;5.980;2022-09-21T06:15:29;102671.06;;;5.43;70.86
69574;BME280;62840;52.366;5.980;2022-09-21T06:17:56;102668.41;;;5.43;71.06
69574;BME280;62840;52.366;5.980;2022-09-21T06:20:22;102668.28;;;5.46;71.04
69574;BME280;62840;52.366;5.980;2022-09-21T06:22:52;102669.94;;;5.50;71.17
69574;BME280;62840;52.366;5.980;2022-09-21T06:25:27;102676.06;;;5.52;70.99
69574;BME280;62840;52.366;5.980;2022-09-21T06:27:53;102676.88;;;5.54;70.94
69574;BME280;62840;52.366;5.980;2022-09-21T06:30:19;102670.69;;;5.55;70.99
69574;BME280;62840;52.366;5.980;2022-09-21T06:32:47;102674.94;;;5.59;71.07
69574;BME280;62840;52.366;5.980;2022-09-21T06:35:17;102673.97;;;5.62;71.17
69574;BME280;62840;52.366;5.980;2022-09-21T06:37:43;102678.31;;;5.64;71.10
69574;BME280;62840;52.366;5.980;2022-09-21T06:40:09;102672.91;;;5.67;71.28
69574;BME280;62840;52.366;5.980;2022-09-21T06:42:40;102672.81;;;5.71;71.36
69574;BME280;62840;52.366;5.980;2022-09-21T06:45:09;102672.72;;;5.74;71.40
69574;BME280;62840;52.366;5.980;2022-09-21T06:47:45;102674.34;;;5.78;71.44
69574;BME280;62840;52.366;5.980;2022-09-21T06:50:14;102668.94;;;5.81;71.47
69574;BME280;62840;52.366;5.980;2022-09-21T06:52:39;102672.31;;;5.86;71.42
69574;BME280;62840;52.366;5.980;2022-09-21T06:55:06;102679.34;;;5.87;71.15
69574;BME280;62840;52.366;5.980;2022-09-21T06:57:33;102676.53;;;5.92;71.61
69574;BME280;62840;52.366;5.980;2022-09-21T07:00:06;102678.16;;;5.96;71.51
69574;BME280;62840;52.366;5.980;2022-09-21T07:02:34;102676.28;;;5.99;71.51
69574;BME280;62840;52.366;5.980;2022-09-21T07:05:00;102676.16;;;6.02;71.59
69574;BME280;62840;52.366;5.980;2022-09-21T07:07:27;102676.88;;;6.07;71.87
69574;BME280;62840;52.366;5.980;2022-09-21T07:09:54;102670.56;;;6.12;71.80
69574;BME280;62840;52.366;5.980;2022-09-21T07:12:20;102679.09;;;6.20;71.88
69574;BME280;62840;52.366;5.980;2022-09-21T07:14:46;102686.72;;;6.29;71.84
69574;BME280;62840;52.366;5.980;2022-09-21T07:17:14;102693.59;;;6.35;71.87
69574;BME280;62840;52.366;5.980;2022-09-21T07:19:40;102691.59;;;6.41;71.88
69574;BME280;62840;52.366;5.980;2022-09-21T07:22:06;102696.66;;;6.47;72.01
69574;BME280;62840;52.366;5.980;2022-09-21T07:24:32;102692.91;;;6.55;71.95
69574;BME280;62840;52.366;5.980;2022-09-21T07:27:02;102697.97;;;6.61;71.86
69574;BME280;62840;52.366;5.980;2022-09-21T07:29:33;102689.78;;;6.67;72.01
69574;BME280;62840;52.366;5.980;2022-09-21T07:32:02;102684.16;;;6.76;72.15
69574;BME280;62840;52.366;5.980;2022-09-21T07:34:33;102690.03;;;6.84;71.76
69574;BME280;62840;52.366;5.980;2022-09-21T07:36:59;102687.09;;;6.92;71.87
69574;BME280;62840;52.366;5.980;2022-09-21T07:39:27;102685.03;;;7.00;72.00
69574;BME280;62840;52.366;5.980;2022-09-21T07:41:53;102681.22;;;7.07;71.78
69574;BME280;62840;52.366;5.980;2022-09-21T07:44:20;102676.47;;;7.16;71.84
69574;BME280;62840;52.366;5.980;2022-09-21T07:46:51;102674.31;;;7.25;71.55
69574;BME280;62840;52.366;5.980;2022-09-21T07:49:20;102673.16;;;7.32;71.72
69574;BME280;62840;52.366;5.980;2022-09-21T07:51:48;102681.66;;;7.42;71.70
69574;BME280;62840;52.366;5.980;2022-09-21T07:54:14;102676.00;;;7.51;71.67
69574;BME280;62840;52.366;5.980;2022-09-21T07:56:40;102676.47;;;7.61;71.72
69574;BME280;62840;52.366;5.980;2022-09-21T07:59:09;102669.97;;;7.68;71.39
69574;BME280;62840;52.366;5.980;2022-09-21T08:01:36;102677.56;;;7.78;71.44
69574;BME280;62840;52.366;5.980;2022-09-21T08:04:04;102675.41;;;7.87;71.58
69574;BME280;62840;52.366;5.980;2022-09-21T08:06:33;102671.47;;;7.96;71.80
69574;BME280;62840;52.366;5.980;2022-09-21T08:09:03;102679.84;;;8.07;71.82
69574;BME280;62840;52.366;5.980;2022-09-21T08:11:31;102677.75;;;8.15;71.85
69574;BME280;62840;52.366;5.980;2022-09-21T08:13:59;102678.19;;;8.25;72.17
69574;BME280;62840;52.366;5.980;2022-09-21T08:16:27;102671.50;;;8.37;72.18
69574;BME280;62840;52.366;5.980;2022-09-21T08:18:54;102681.59;;;8.49;72.41
69574;BME280;62840;52.366;5.980;2022-09-21T08:21:22;102674.94;;;8.59;72.70
69574;BME280;62840;52.366;5.980;2022-09-21T08:23:48;102684.22;;;8.70;72.74
69574;BME280;62840;52.366;5.980;2022-09-21T08:26:18;102678.34;;;8.82;72.67
69574;BME280;62840;52.366;5.980;2022-09-21T08:28:44;102682.25;;;8.94;72.84
69574;BME280;62840;52.366;5.980;2022-09-21T08:31:11;102686.13;;;9.06;73.15
69574;BME280;62840;52.366;5.980;2022-09-21T08:33:38;102688.13;;;9.19;73.21
69574;BME280;62840;52.366;5.980;2022-09-21T08:36:05;102681.25;;;9.34;73.53
69574;BME280;62840;52.366;5.980;2022-09-21T08:38:36;102691.31;;;9.47;73.54
69574;BME280;62840;52.366;5.980;2022-09-21T08:41:13;102690.72;;;9.59;73.24
69574;BME280;62840;52.366;5.980;2022-09-21T08:43:44;102688.41;;;9.70;73.43
69574;BME280;62840;52.366;5.980;2022-09-21T08:46:19;102696.56;;;9.84;73.66
69574;BME280;62840;52.366;5.980;2022-09-21T08:48:52;102694.22;;;9.96;73.36
69574;BME280;62840;52.366;5.980;2022-09-21T08:51:25;102700.66;;;10.09;72.86
69574;BME280;62840;52.366;5.980;2022-09-21T08:53:57;102697.28;;;10.23;73.00
69574;BME280;62840;52.366;5.980;2022-09-21T08:56:30;102701.09;;;10.35;72.85
69574;BME280;62840;52.366;5.980;2022-09-21T08:58:56;102702.38;;;10.45;72.94
69574;BME280;62840;52.366;5.980;2022-09-21T09:01:34;102700.97;;;10.55;72.55
69574;BME280;62840;52.366;5.980;2022-09-21T09:04:33;102692.28;;;10.67;72.79
69574;BME280;62840;52.366;5.980;2022-09-21T09:07:32;102701.53;;;10.78;72.55
69574;BME280;62840;52.366;5.980;2022-09-21T09:10:37;102694.78;;;10.88;72.38
69574;BME280;62840;52.366;5.980;2022-09-21T09:13:17;102703.25;;;10.96;72.11
69574;BME280;62840;52.366;5.980;2022-09-21T09:16:12;102700.84;;;11.07;72.16
69574;BME280;62840;52.366;5.980;2022-09-21T09:18:50;102707.38;;;11.18;72.08
69574;BME280;62840;52.366;5.980;2022-09-21T09:21:24;102705.16;;;11.26;72.06
69574;BME280;62840;52.366;5.980;2022-09-21T09:23:58;102709.97;;;11.35;72.22
69574;BME280;62840;52.366;5.980;2022-09-21T09:26:37;102699.75;;;11.43;72.04
69574;BME280;62840;52.366;5.980;2022-09-21T09:29:17;102704.63;;;11.51;72.02
69574;BME280;62840;52.366;5.980;2022-09-21T09:31:52;102697.91;;;11.60;72.11
69574;BME280;62840;52.366;5.980;2022-09-21T09:34:23;102697.56;;;11.66;71.84
69574;BME280;62840;52.366;5.980;2022-09-21T09:36:59;102699.69;;;11.75;71.79
69574;BME280;62840;52.366;5.980;2022-09-21T09:39:35;102712.53;;;11.84;71.55
69574;BME280;62840;52.366;5.980;2022-09-21T09:42:34;102699.75;;;11.89;71.55
69574;BME280;62840;52.366;5.980;2022-09-21T09:45:34;102708.34;;;11.95;71.49
69574;BME280;62840;52.366;5.980;2022-09-21T09:48:19;102709.75;;;12.02;70.99
69574;BME280;62840;52.366;5.980;2022-09-21T09:50:59;102708.44;;;12.09;71.00
69574;BME280;62840;52.366;5.980;2022-09-21T09:53:29;102715.91;;;12.18;70.77
69574;BME280;62840;52.366;5.980;2022-09-21T09:55:57;102710.06;;;12.26;70.74
69574;BME280;62840;52.366;5.980;2022-09-21T09:58:34;102718.47;;;12.36;70.63
69574;BME280;62840;52.366;5.980;2022-09-21T10:01:08;102703.75;;;12.43;69.98
69574;BME280;62840;52.366;5.980;2022-09-21T10:04:04;102705.94;;;12.50;70.21
69574;BME280;62840;52.366;5.980;2022-09-21T10:06:32;102703.00;;;12.55;70.30
69574;BME280;62840;52.366;5.980;2022-09-21T10:09:17;102693.66;;;12.62;70.02
69574;BME280;62840;52.366;5.980;2022-09-21T10:11:46;102698.59;;;12.68;70.07
69574;BME280;62840;52.366;5.980;2022-09-21T10:14:18;102699.00;;;12.77;70.00
69574;BME280;62840;52.366;5.980;2022-09-21T10:16:54;102696.97;;;12.80;69.86
69574;BME280;62840;52.366;5.980;2022-09-21T10:19:26;102695.53;;;12.89;69.59
69574;BME280;62840;52.366;5.980;2022-09-21T10:21:58;102694.22;;;12.96;69.45
69574;BME280;62840;52.366;5.980;2022-09-21T10:24:28;102697.47;;;13.01;69.59
69574;BME280;62840;52.366;5.980;2022-09-21T10:27:03;102694.59;;;13.04;69.72
69574;BME280;62840;52.366;5.980;2022-09-21T10:29:46;102690.97;;;13.05;69.51
69574;BME280;62840;52.366;5.980;2022-09-21T10:32:21;102694.28;;;13.09;69.23
69574;BME280;62840;52.366;5.980;2022-09-21T10:35:14;102688.63;;;13.13;69.12
69574;BME280;62840;52.366;5.980;2022-09-21T10:37:45;102691.91;;;13.19;69.05
69574;BME280;62840;52.366;5.980;2022-09-21T10:40:27;102690.53;;;13.26;69.02
69574;BME280;62840;52.366;5.980;2022-09-21T10:42:58;102685.72;;;13.31;69.08
69574;BME280;62840;52.366;5.980;2022-09-21T10:45:27;102682.66;;;13.37;69.04
69574;BME280;62840;52.366;5.980;2022-09-21T10:48:06;102683.22;;;13.42;67.59
69574;BME280;62840;52.366;5.980;2022-09-21T10:50:35;102677.47;;;13.48;67.18
69574;BME280;62840;52.366;5.980;2022-09-21T10:53:11;102685.09;;;13.54;66.95
69574;BME280;62840;52.366;5.980;2022-09-21T10:55:52;102683.94;;;13.58;67.16
69574;BME280;62840;52.366;5.980;2022-09-21T10:58:23;102686.25;;;13.65;67.32
69574;BME280;62840;52.366;5.980;2022-09-21T11:00:55;102680.47;;;13.71;67.05
69574;BME280;62840;52.366;5.980;2022-09-21T11:03:45;102685.31;;;13.78;67.31
69574;BME280;62840;52.366;5.980;2022-09-21T11:06:22;102681.38;;;13.84;66.55
69574;BME280;62840;52.366;5.980;2022-09-21T11:08:57;102682.78;;;13.90;66.30
69574;BME280;62840;52.366;5.980;2022-09-21T11:11:36;102681.50;;;13.95;66.33
69574;BME280;62840;52.366;5.980;2022-09-21T11:14:18;102675.72;;;14.02;66.25
69574;BME280;62840;52.366;5.980;2022-09-21T11:17:03;102677.22;;;14.06;66.34
69574;BME280;62840;52.366;5.980;2022-09-21T11:19:43;102671.66;;;14.09;65.77
69574;BME280;62840;52.366;5.980;2022-09-21T11:22:20;102671.44;;;14.12;65.23
69574;BME280;62840;52.366;5.980;2022-09-21T11:25:05;102674.88;;;14.14;64.99
69574;BME280;62840;52.366;5.980;2022-09-21T11:27:49;102670.28;;;14.16;65.32
69574;BME280;62840;52.366;5.980;2022-09-21T11:30:36;102674.47;;;14.20;64.89
69574;BME280;62840;52.366;5.980;2022-09-21T11:33:24;102681.31;;;14.24;64.39
69574;BME280;62840;52.366;5.980;2022-09-21T11:36:10;102677.47;;;14.28;64.58
69574;BME280;62840;52.366;5.980;2022-09-21T11:38:53;102675.53;;;14.30;64.19
69574;BME280;62840;52.366;5.980;2022-09-21T11:44:45;102664.81;;;14.30;64.04
69574;BME280;62840;52.366;5.980;2022-09-21T11:47:28;102666.53;;;14.31;64.03
69574;BME280;62840;52.366;5.980;2022-09-21T11:50:26;102665.34;;;14.35;63.54
69574;BME280;62840;52.366;5.980;2022-09-21T11:53:10;102655.16;;;14.40;63.31
69574;BME280;62840;52.366;5.980;2022-09-21T11:56:16;102656.44;;;14.48;63.24
69574;BME280;62840;52.366;5.980;2022-09-21T11:59:04;102648.06;;;14.52;63.33
69574;BME280;62840;52.366;5.980;2022-09-21T12:02:02;102645.69;;;14.60;63.15
69574;BME280;62840;52.366;5.980;2022-09-21T12:04:51;102647.81;;;14.68;63.14
69574;BME280;62840;52.366;5.980;2022-09-21T12:07:35;102644.75;;;14.74;62.82
69574;BME280;62840;52.366;5.980;2022-09-21T12:10:38;102637.97;;;14.81;62.31
69574;BME280;62840;52.366;5.980;2022-09-21T12:13:39;102642.91;;;14.88;62.13
69574;BME280;62840;52.366;5.980;2022-09-21T12:16:18;102635.13;;;14.96;62.83
69574;BME280;62840;52.366;5.980;2022-09-21T12:18:58;102636.38;;;15.03;62.76
69574;BME280;62840;52.366;5.980;2022-09-21T12:21:34;102630.56;;;15.09;62.40
69574;BME280;62840;52.366;5.980;2022-09-21T12:24:13;102628.19;;;15.17;61.59
69574;BME280;62840;52.366;5.980;2022-09-21T12:26:49;102628.59;;;15.24;61.47
69574;BME280;62840;52.366;5.980;2022-09-21T12:29:23;102623.81;;;15.28;61.35
69574;BME280;62840;52.366;5.980;2022-09-21T12:32:00;102627.06;;;15.33;60.92
69574;BME280;62840;52.366;5.980;2022-09-21T12:34:39;102628.50;;;15.37;60.91
69574;BME280;62840;52.366;5.980;2022-09-21T12:37:11;102624.88;;;15.38;60.79
69574;BME280;62840;52.366;5.980;2022-09-21T12:39:48;102624.88;;;15.38;61.10
69574;BME280;62840;52.366;5.980;2022-09-21T12:42:27;102612.38;;;15.37;60.36
69574;BME280;62840;52.366;5.980;2022-09-21T12:45:11;102621.19;;;15.39;60.56
69574;BME280;62840;52.366;5.980;2022-09-21T12:47:53;102612.19;;;15.40;59.59
69574;BME280;62840;52.366;5.980;2022-09-21T12:50:31;102604.22;;;15.38;59.62
69574;BME280;62840;52.366;5.980;2022-09-21T12:53:02;102609.84;;;15.35;59.86
69574;BME280;62840;52.366;5.980;2022-09-21T12:55:41;102612.63;;;15.34;60.01
69574;BME280;62840;52.366;5.980;2022-09-21T12:58:29;102603.81;;;15.32;60.22
69574;BME280;62840;52.366;5.980;2022-09-21T13:01:15;102604.47;;;15.35;60.11
69574;BME280;62840;52.366;5.980;2022-09-21T13:10:19;102591.22;;;15.56;59.66
69574;BME280;62840;52.366;5.980;2022-09-21T13:12:58;102593.44;;;15.62;59.60
69574;BME280;62840;52.366;5.980;2022-09-21T13:15:40;102592.25;;;15.67;58.84
69574;BME280;62840;52.366;5.980;2022-09-21T13:18:21;102593.72;;;15.71;58.79
69574;BME280;62840;52.366;5.980;2022-09-21T13:20:51;102593.22;;;15.77;58.96
69574;BME280;62840;52.366;5.980;2022-09-21T13:23:24;102590.00;;;15.84;58.41
69574;BME280;62840;52.366;5.980;2022-09-21T13:26:27;102586.94;;;15.89;57.33
69574;BME280;62840;52.366;5.980;2022-09-21T13:32:06;102591.13;;;15.93;58.12
69574;BME280;62840;52.366;5.980;2022-09-21T13:34:51;102588.19;;;15.96;57.64
69574;BME280;62840;52.366;5.980;2022-09-21T13:37:31;102584.28;;;16.00;57.65
69574;BME280;62840;52.366;5.980;2022-09-21T13:43:20;102579.50;;;16.04;56.93
69574;BME280;62840;52.366;5.980;2022-09-21T13:45:52;102576.69;;;16.05;56.87
69574;BME280;62840;52.366;5.980;2022-09-21T13:48:25;102575.34;;;16.11;56.98
69574;BME280;62840;52.366;5.980;2022-09-21T13:50:58;102573.66;;;16.10;56.82